createdAt,value
2022-08-26T00:01:00.273Z,24.67
2022-08-26T00:06:02.038Z,24.25
2022-08-26T00:11:04.328Z,24.83
2022-08-26T00:16:07.824Z,25.17
2022-08-26T00:21:11.033Z,24.40
2022-08-26T00:26:13.592Z,25.25
2022-08-26T00:31:15.525Z,25.70
2022-08-26T00:36:20.012Z,25.10
2022-08-26T00:41:22.253Z,25.52
2022-08-26T00:46:28.983Z,25.63
2022-08-26T00:51:31.273Z,24.55
2022-08-26T00:56:56.725Z,28.67
2022-08-26T01:01:58.469Z,26.13
2022-08-26T01:07:00.813Z,24.90
2022-08-26T01:12:03.477Z,25.80
2022-08-26T01:17:07.476Z,26.70
2022-08-26T01:22:28.223Z,27.05
2022-08-26T01:27:32.963Z,27.52
2022-08-26T01:32:36.397Z,25.70
2022-08-26T01:37:41.312Z,28.75
2022-08-26T01:42:43.825Z,28.42
2022-08-26T01:47:47.490Z,27.95
2022-08-26T01:52:54.507Z,25.88
2022-08-26T01:57:57.456Z,25.20
2022-08-26T02:03:17.630Z,26.35
2022-08-26T02:08:24.784Z,25.50
2022-08-26T02:13:31.399Z,25.70
2022-08-26T02:18:36.238Z,24.90
2022-08-26T02:23:39.934Z,25.23
2022-08-26T02:28:56.479Z,24.75
2022-08-26T02:34:12.960Z,26.05
2022-08-26T02:39:21.927Z,26.45
2022-08-26T02:44:24.065Z,26.65
2022-08-26T02:49:28.033Z,27.10
2022-08-26T02:54:29.742Z,27.05
2022-08-26T02:59:32.246Z,24.38
2022-08-26T03:04:33.991Z,25.55
2022-08-26T03:09:35.761Z,25.30
2022-08-26T03:14:37.882Z,25.55
2022-08-26T03:19:39.539Z,26.23
2022-08-26T03:24:46.034Z,25.17
2022-08-26T03:30:06.430Z,24.15
2022-08-26T03:35:09.097Z,25.30
2022-08-26T03:40:11.736Z,26.45
2022-08-26T03:45:15.448Z,25.52
2022-08-26T03:50:22.987Z,24.75
2022-08-26T03:55:31.107Z,25.17
2022-08-26T04:00:32.757Z,24.77
2022-08-26T04:05:36.136Z,26.75
2022-08-26T04:10:38.443Z,26.38
2022-08-26T04:15:40.078Z,25.38
2022-08-26T04:20:41.732Z,23.90
2022-08-26T04:25:43.440Z,25.48
2022-08-26T04:30:45.150Z,26.25
2022-08-26T04:35:47.830Z,25.23
2022-08-26T04:40:49.546Z,24.23
2022-08-26T04:45:51.402Z,24.73
2022-08-26T04:50:53.348Z,23.98
2022-08-26T04:55:55.430Z,24.33
2022-08-26T05:00:57.145Z,26.13
2022-08-26T05:05:58.854Z,22.98
2022-08-26T05:11:05.029Z,24.30
2022-08-26T05:16:11.589Z,25.55
2022-08-26T05:21:23.424Z,26.63
2022-08-26T05:26:27.019Z,23.15
2022-08-26T05:31:31.708Z,25.10
2022-08-26T05:36:35.473Z,23.70
2022-08-26T05:41:40.792Z,22.65
2022-08-26T05:46:44.007Z,21.77
2022-08-26T05:51:47.530Z,24.63
2022-08-26T05:56:51.317Z,21.88
2022-08-26T06:01:54.966Z,22.65
2022-08-26T06:06:57.637Z,21.23
2022-08-26T06:12:01.827Z,19.95
2022-08-26T06:17:03.806Z,21.20
2022-08-26T06:22:25.506Z,18.65
2022-08-26T06:27:32.140Z,19.20
2022-08-26T06:32:34.611Z,17.83
2022-08-26T06:37:36.849Z,17.20
2022-08-26T06:42:38.735Z,17.48
2022-08-26T06:47:40.951Z,17.25
2022-08-26T06:52:42.670Z,17.33
2022-08-26T06:57:44.288Z,14.52
2022-08-26T07:02:46.954Z,16.27
2022-08-26T07:07:48.990Z,16.02
2022-08-26T07:12:51.517Z,16.77
2022-08-26T07:17:53.151Z,15.65
2022-08-26T07:22:54.851Z,14.57
2022-08-26T07:27:56.517Z,14.25
2022-08-26T07:32:59.311Z,14.80
2022-08-26T07:38:01.699Z,13.95
2022-08-26T07:43:04.007Z,14.00
2022-08-26T07:48:05.963Z,11.50
2022-08-26T07:53:07.731Z,10.73
2022-08-26T07:58:12.465Z,11.38
2022-08-26T08:03:15.173Z,9.95
2022-08-26T08:08:26.795Z,10.25
2022-08-26T08:13:30.634Z,9.35
2022-08-26T08:18:33.724Z,10.30
2022-08-26T08:23:35.922Z,8.93
2022-08-26T08:28:38.931Z,8.45
2022-08-26T08:33:40.585Z,9.15
2022-08-26T08:38:44.450Z,10.05
2022-08-26T08:43:47.464Z,10.35
2022-08-26T08:48:57.323Z,10.43
2022-08-26T08:54:00.633Z,10.82
2022-08-26T08:59:09.824Z,10.43
2022-08-26T09:04:28.730Z,11.77
2022-08-26T09:09:39.241Z,12.15
2022-08-26T09:14:41.131Z,11.75
2022-08-26T09:20:06.110Z,12.57
2022-08-26T09:25:12.170Z,11.88
2022-08-26T09:30:23.361Z,13.65
2022-08-26T09:35:27.958Z,13.65
2022-08-26T09:40:34.882Z,14.48
2022-08-26T09:45:39.063Z,13.27
2022-08-26T09:51:03.616Z,15.50
2022-08-26T09:56:27.549Z,14.57
2022-08-26T10:01:42.357Z,13.70
2022-08-26T10:07:05.942Z,13.32
2022-08-26T10:12:13.384Z,11.73
2022-08-26T10:17:28.325Z,11.00
2022-08-26T10:22:44.501Z,10.07
2022-08-26T10:28:04.760Z,8.52
2022-08-26T10:33:13.378Z,7.93
2022-08-26T10:38:18.916Z,8.57
2022-08-26T10:43:35.778Z,7.88
2022-08-26T10:48:59.981Z,5.85
2022-08-26T10:54:04.855Z,6.35
2022-08-26T10:59:40.030Z,6.13
2022-08-26T11:04:53.575Z,5.47
2022-08-26T11:09:56.030Z,5.32
2022-08-26T11:14:59.390Z,5.25
2022-08-26T11:20:03.964Z,4.40
2022-08-26T11:25:16.163Z,4.30
2022-08-26T11:30:20.230Z,4.50
2022-08-26T11:35:24.649Z,5.30
2022-08-26T11:40:37.701Z,5.15
2022-08-26T11:45:44.930Z,5.60
2022-08-26T11:51:16.310Z,9.48
2022-08-26T11:56:31.622Z,5.40
2022-08-26T12:01:39.977Z,7.15
2022-08-26T12:06:51.014Z,8.43
2022-08-26T12:11:57.942Z,8.63
2022-08-26T12:17:10.450Z,6.97
2022-08-26T12:22:32.200Z,7.25
2022-08-26T12:27:42.443Z,6.97
2022-08-26T12:32:56.649Z,6.82
2022-08-26T12:38:00.445Z,7.57
2022-08-26T12:43:04.930Z,7.82
2022-08-26T12:48:13.555Z,7.00
2022-08-26T12:53:24.395Z,7.30
2022-08-26T12:58:39.457Z,7.38
2022-08-26T13:03:45.372Z,6.13
2022-08-26T13:08:56.920Z,6.20
2022-08-26T13:14:07.583Z,6.80
2022-08-26T13:19:12.161Z,5.85
2022-08-26T13:24:17.393Z,6.20
2022-08-26T13:29:19.433Z,5.63
2022-08-26T13:34:23.039Z,5.22
2022-08-26T13:39:26.313Z,4.95
2022-08-26T13:44:28.029Z,5.93
2022-08-26T13:49:29.723Z,6.18
2022-08-26T13:54:31.404Z,6.80
2022-08-26T13:59:33.056Z,6.70
2022-08-26T14:04:34.689Z,7.57
2022-08-26T14:09:38.372Z,7.85
2022-08-26T14:14:40.186Z,5.90
2022-08-26T14:19:46.056Z,6.97
2022-08-26T14:24:48.717Z,6.53
2022-08-26T14:29:50.601Z,6.50
2022-08-26T14:34:52.813Z,7.35
2022-08-26T14:39:54.487Z,6.68
2022-08-26T14:45:01.979Z,7.05
2022-08-26T14:50:04.530Z,7.10
2022-08-26T14:55:06.478Z,5.30
2022-08-26T15:00:08.940Z,5.68
2022-08-26T15:05:11.671Z,5.78
2022-08-26T15:10:16.123Z,4.97
2022-08-26T15:15:18.637Z,5.53
2022-08-26T15:20:20.413Z,6.75
2022-08-26T15:25:22.244Z,5.72
2022-08-26T15:30:23.975Z,5.55
2022-08-26T15:35:25.655Z,5.90
2022-08-26T15:40:27.380Z,6.20
2022-08-26T15:45:29.116Z,6.22
2022-08-26T15:50:30.929Z,5.70
2022-08-26T15:55:32.548Z,6.57
2022-08-26T16:00:34.211Z,6.95
2022-08-26T16:05:38.039Z,3.75
2022-08-26T16:10:45.445Z,4.13
2022-08-26T16:15:51.103Z,3.42
2022-08-26T16:21:12.866Z,4.22
2022-08-26T16:26:24.312Z,6.57
2022-08-26T16:31:26.225Z,5.47
2022-08-26T16:36:28.066Z,6.45
2022-08-26T16:41:31.604Z,6.35
2022-08-26T16:46:34.266Z,7.97
2022-08-26T16:51:38.137Z,7.25
2022-08-26T16:56:40.059Z,7.95
2022-08-26T17:01:41.799Z,6.97
2022-08-26T17:06:43.450Z,7.05
2022-08-26T17:11:45.189Z,8.35
2022-08-26T17:16:47.170Z,7.10
2022-08-26T17:21:49.249Z,6.50
2022-08-26T17:26:55.539Z,7.18
2022-08-26T17:31:57.496Z,6.95
2022-08-26T17:36:59.531Z,6.55
2022-08-26T17:42:01.203Z,6.25
2022-08-26T17:47:02.923Z,6.53
2022-08-26T17:52:09.618Z,7.78
2022-08-26T17:57:13.040Z,7.70
2022-08-26T18:02:14.766Z,7.80
2022-08-26T18:07:17.337Z,7.57
2022-08-26T18:12:18.978Z,7.63
2022-08-26T18:17:20.693Z,8.95
2022-08-26T18:22:23.288Z,7.68
2022-08-26T18:27:24.965Z,8.25
2022-08-26T18:32:26.630Z,7.97
2022-08-26T18:37:31.424Z,8.68
2022-08-26T18:42:33.683Z,10.32
2022-08-26T18:47:35.846Z,11.52
2022-08-26T18:52:37.858Z,11.07
2022-08-26T18:57:39.750Z,10.70
2022-08-26T19:02:41.476Z,11.43
2022-08-26T19:07:47.894Z,11.52
2022-08-26T19:12:52.117Z,11.05
2022-08-26T19:17:54.136Z,11.95
2022-08-26T19:22:57.568Z,10.63
2022-08-26T19:28:04.247Z,10.93
2022-08-26T19:33:09.995Z,10.65
2022-08-26T19:38:12.069Z,11.50
2022-08-26T19:43:13.746Z,10.45
2022-08-26T19:48:16.273Z,10.63
2022-08-26T19:53:17.928Z,12.52
2022-08-26T19:58:19.587Z,12.30
2022-08-26T20:03:23.757Z,11.63
2022-08-26T20:08:25.586Z,10.65
2022-08-26T20:13:28.295Z,11.25
2022-08-26T20:18:48.467Z,10.85
2022-08-26T20:23:51.468Z,10.80
2022-08-26T20:28:53.741Z,10.13
2022-08-26T20:33:55.751Z,8.45
2022-08-26T20:38:58.199Z,10.32
2022-08-26T20:44:00.441Z,10.10
2022-08-26T20:49:03.109Z,11.23
2022-08-26T20:54:07.849Z,10.65
2022-08-26T20:59:10.028Z,11.23
2022-08-26T21:04:17.719Z,10.35
2022-08-26T21:09:19.439Z,10.65
2022-08-26T21:14:25.652Z,11.77
2022-08-26T21:19:27.689Z,11.13
2022-08-26T21:24:29.410Z,11.65
2022-08-26T21:29:31.119Z,11.02
2022-08-26T21:34:32.811Z,13.50
2022-08-26T21:39:34.449Z,13.35
2022-08-26T21:44:36.222Z,13.88
2022-08-26T21:49:37.906Z,15.73
2022-08-26T21:54:39.886Z,15.93
2022-08-26T21:59:52.443Z,14.80
2022-08-26T22:04:54.153Z,14.30
2022-08-26T22:09:56.216Z,13.60
2022-08-26T22:14:57.891Z,12.50
2022-08-26T22:19:59.594Z,10.90
2022-08-26T22:25:02.019Z,12.27
2022-08-26T22:30:04.115Z,11.55
2022-08-26T22:35:28.211Z,13.30
2022-08-26T22:40:28.408Z,13.82
2022-08-26T22:45:31.782Z,13.10
2022-08-26T22:50:33.518Z,14.05
2022-08-26T22:55:36.204Z,11.73
2022-08-26T23:00:38.919Z,12.43
2022-08-26T23:05:42.207Z,10.20
2022-08-26T23:10:45.800Z,11.68
2022-08-26T23:15:47.608Z,10.45
2022-08-26T23:20:49.254Z,10.77
2022-08-26T23:25:50.968Z,11.90
2022-08-26T23:30:53.723Z,11.13
2022-08-26T23:35:55.430Z,11.05
2022-08-26T23:40:57.103Z,11.55
2022-08-26T23:45:59.015Z,8.88
2022-08-26T23:51:19.138Z,10.38
2022-08-26T23:56:20.932Z,8.38
